sensor_id;sensor_type;location;lat;lon;timestamp;temperature;humidity
15386;DHT22;7791;47.246;9.648;2023-02-28T00:01:34;0.70;99.90
15386;DHT22;7791;47.246;9.648;2023-02-28T00:04:00;0.70;99.90
15386;DHT22;7791;47.246;9.648;2023-02-28T00:06:26;0.70;99.90
15386;DHT22;7791;47.246;9.648;2023-02-28T00:08:51;0.60;99.90
15386;DHT22;7791;47.246;9.648;2023-02-28T00:11:17;0.60;99.90
15386;DHT22;7791;47.246;9.648;2023-02-28T00:13:44;0.60;99.90
15386;DHT22;7791;47.246;9.648;2023-02-28T00:16:14;0.50;99.90
15386;DHT22;7791;47.246;9.648;2023-02-28T00:18:40;0.40;99.90
15386;DHT22;7791;47.246;9.648;2023-02-28T00:21:07;0.30;99.90
15386;DHT22;7791;47.246;9.648;2023-02-28T00:23:41;0.20;99.90
15386;DHT22;7791;47.246;9.648;2023-02-28T00:26:07;0.10;99.90
15386;DHT22;7791;47.246;9.648;2023-02-28T00:28:33;-0.10;99.90
15386;DHT22;7791;47.246;9.648;2023-02-28T00:30:58;-0.10;99.90
15386;DHT22;7791;47.246;9.648;2023-02-28T00:33:26;-0.20;99.90
15386;DHT22;7791;47.246;9.648;2023-02-28T00:35:51;-0.40;99.90
15386;DHT22;7791;47.246;9.648;2023-02-28T00:38:29;-0.50;99.90
15386;DHT22;7791;47.246;9.648;2023-02-28T00:40:55;-0.80;99.90
15386;DHT22;7791;47.246;9.648;2023-02-28T00:43:21;-1.00;99.90
15386;DHT22;7791;47.246;9.648;2023-02-28T00:45:46;-1.20;99.90
15386;DHT22;7791;47.246;9.648;2023-02-28T00:48:12;-1.20;99.90
15386;DHT22;7791;47.246;9.648;2023-02-28T00:50:39;-1.20;99.90
15386;DHT22;7791;47.246;9.648;2023-02-28T00:53:10;-1.30;99.90
15386;DHT22;7791;47.246;9.648;2023-02-28T00:55:36;-1.40;99.90
15386;DHT22;7791;47.246;9.648;2023-02-28T00:58:01;-1.50;99.90
15386;DHT22;7791;47.246;9.648;2023-02-28T01:00:27;-1.60;99.90
15386;DHT22;7791;47.246;9.648;2023-02-28T01:02:53;-1.60;99.90
15386;DHT22;7791;47.246;9.648;2023-02-28T01:05:18;-1.60;99.90
15386;DHT22;7791;47.246;9.648;2023-02-28T01:07:52;-1.60;99.90
15386;DHT22;7791;47.246;9.648;2023-02-28T01:10:18;-1.70;99.90
15386;DHT22;7791;47.246;9.648;2023-02-28T01:12:43;-1.70;99.90
15386;DHT22;7791;47.246;9.648;2023-02-28T01:15:10;-1.70;99.90
15386;DHT22;7791;47.246;9.648;2023-02-28T01:17:36;-1.60;99.90
15386;DHT22;7791;47.246;9.648;2023-02-28T01:20:03;-1.60;99.90
15386;DHT22;7791;47.246;9.648;2023-02-28T01:22:29;-1.60;99.90
15386;DHT22;7791;47.246;9.648;2023-02-28T01:24:56;-1.50;99.90
15386;DHT22;7791;47.246;9.648;2023-02-28T01:27:21;-1.50;99.90
15386;DHT22;7791;47.246;9.648;2023-02-28T01:29:47;-1.40;99.90
15386;DHT22;7791;47.246;9.648;2023-02-28T01:32:13;-1.40;99.90
15386;DHT22;7791;47.246;9.648;2023-02-28T01:34:39;-1.30;99.90
15386;DHT22;7791;47.246;9.648;2023-02-28T01:37:04;-1.30;99.90
15386;DHT22;7791;47.246;9.648;2023-02-28T01:39:42;-1.20;99.90
15386;DHT22;7791;47.246;9.648;2023-02-28T01:42:10;-1.10;99.90
15386;DHT22;7791;47.246;9.648;2023-02-28T01:44:58;-1.20;99.90
15386;DHT22;7791;47.246;9.648;2023-02-28T01:47:27;-1.10;99.90
15386;DHT22;7791;47.246;9.648;2023-02-28T01:49:54;-1.10;99.90
15386;DHT22;7791;47.246;9.648;2023-02-28T01:52:20;-1.10;99.90
15386;DHT22;7791;47.246;9.648;2023-02-28T01:54:51;-1.10;99.90
15386;DHT22;7791;47.246;9.648;2023-02-28T01:57:22;-1.10;99.90
15386;DHT22;7791;47.246;9.648;2023-02-28T01:59:53;-1.10;99.90
15386;DHT22;7791;47.246;9.648;2023-02-28T02:02:21;-1.20;99.90
15386;DHT22;7791;47.246;9.648;2023-02-28T02:04:53;-1.30;99.90
15386;DHT22;7791;47.246;9.648;2023-02-28T02:07:20;-1.40;99.90
15386;DHT22;7791;47.246;9.648;2023-02-28T02:09:46;-1.60;99.90
15386;DHT22;7791;47.246;9.648;2023-02-28T02:12:23;-1.70;99.90
15386;DHT22;7791;47.246;9.648;2023-02-28T02:15:00;-1.80;99.90
15386;DHT22;7791;47.246;9.648;2023-02-28T02:17:32;-1.90;99.90
15386;DHT22;7791;47.246;9.648;2023-02-28T02:20:32;-2.00;99.90
15386;DHT22;7791;47.246;9.648;2023-02-28T02:23:27;-2.10;99.90
15386;DHT22;7791;47.246;9.648;2023-02-28T02:25:57;-2.20;99.90
15386;DHT22;7791;47.246;9.648;2023-02-28T02:29:11;-2.30;99.90
15386;DHT22;7791;47.246;9.648;2023-02-28T02:31:53;-2.40;99.90
15386;DHT22;7791;47.246;9.648;2023-02-28T02:34:33;-2.50;99.90
15386;DHT22;7791;47.246;9.648;2023-02-28T02:37:11;-2.60;99.90
15386;DHT22;7791;47.246;9.648;2023-02-28T02:39:47;-2.70;99.90
15386;DHT22;7791;47.246;9.648;2023-02-28T02:42:16;-2.70;99.90
15386;DHT22;7791;47.246;9.648;2023-02-28T02:44:47;-2.70;99.90
15386;DHT22;7791;47.246;9.648;2023-02-28T02:47:16;-2.70;99.90
15386;DHT22;7791;47.246;9.648;2023-02-28T02:49:47;-2.70;99.90
15386;DHT22;7791;47.246;9.648;2023-02-28T02:52:16;-2.70;99.90
15386;DHT22;7791;47.246;9.648;2023-02-28T02:54:45;-2.70;99.90
15386;DHT22;7791;47.246;9.648;2023-02-28T02:57:14;-2.70;99.90
15386;DHT22;7791;47.246;9.648;2023-02-28T02:59:42;-2.70;99.90
15386;DHT22;7791;47.246;9.648;2023-02-28T03:02:11;-2.70;99.90
15386;DHT22;7791;47.246;9.648;2023-02-28T03:04:45;-2.70;99.90
15386;DHT22;7791;47.246;9.648;2023-02-28T03:07:12;-2.60;99.90
15386;DHT22;7791;47.246;9.648;2023-02-28T03:09:37;-2.60;99.90
15386;DHT22;7791;47.246;9.648;2023-02-28T03:12:04;-2.50;99.90
15386;DHT22;7791;47.246;9.648;2023-02-28T03:14:40;-2.40;99.90
15386;DHT22;7791;47.246;9.648;2023-02-28T03:17:25;-2.30;99.90
15386;DHT22;7791;47.246;9.648;2023-02-28T03:20:04;-2.20;99.90
15386;DHT22;7791;47.246;9.648;2023-02-28T03:22:41;-2.10;99.90
15386;DHT22;7791;47.246;9.648;2023-02-28T03:25:31;-2.00;99.90
15386;DHT22;7791;47.246;9.648;2023-02-28T03:28:03;-2.10;99.90
15386;DHT22;7791;47.246;9.648;2023-02-28T03:30:36;-2.10;99.90
15386;DHT22;7791;47.246;9.648;2023-02-28T03:33:08;-2.10;99.90
15386;DHT22;7791;47.246;9.648;2023-02-28T03:35:39;-2.10;99.90
15386;DHT22;7791;47.246;9.648;2023-02-28T03:38:10;-2.00;99.90
15386;DHT22;7791;47.246;9.648;2023-02-28T03:40:39;-2.00;99.90
15386;DHT22;7791;47.246;9.648;2023-02-28T03:43:10;-2.00;99.90
15386;DHT22;7791;47.246;9.648;2023-02-28T03:45:39;-1.90;99.90
15386;DHT22;7791;47.246;9.648;2023-02-28T03:48:09;-2.00;99.90
15386;DHT22;7791;47.246;9.648;2023-02-28T03:50:40;-2.00;99.90
15386;DHT22;7791;47.246;9.648;2023-02-28T03:53:10;-2.00;99.90
15386;DHT22;7791;47.246;9.648;2023-02-28T03:55:42;-2.00;99.90
15386;DHT22;7791;47.246;9.648;2023-02-28T03:58:14;-2.00;99.90
15386;DHT22;7791;47.246;9.648;2023-02-28T04:00:45;-2.00;99.90
15386;DHT22;7791;47.246;9.648;2023-02-28T04:03:12;-1.90;99.90
15386;DHT22;7791;47.246;9.648;2023-02-28T04:05:50;-1.90;99.90
15386;DHT22;7791;47.246;9.648;2023-02-28T04:08:16;-1.80;99.90
15386;DHT22;7791;47.246;9.648;2023-02-28T04:10:46;-1.80;99.90
15386;DHT22;7791;47.246;9.648;2023-02-28T04:13:13;-1.70;99.90
15386;DHT22;7791;47.246;9.648;2023-02-28T04:15:39;-1.60;99.90
15386;DHT22;7791;47.246;9.648;2023-02-28T04:18:05;-1.60;99.90
15386;DHT22;7791;47.246;9.648;2023-02-28T04:20:31;-1.50;99.90
15386;DHT22;7791;47.246;9.648;2023-02-28T04:22:58;-1.50;99.90
15386;DHT22;7791;47.246;9.648;2023-02-28T04:25:24;-1.50;99.90
15386;DHT22;7791;47.246;9.648;2023-02-28T04:27:50;-1.50;99.90
15386;DHT22;7791;47.246;9.648;2023-02-28T04:30:16;-1.50;99.90
15386;DHT22;7791;47.246;9.648;2023-02-28T04:32:42;-1.40;99.90
15386;DHT22;7791;47.246;9.648;2023-02-28T04:35:08;-1.40;99.90
15386;DHT22;7791;47.246;9.648;2023-02-28T04:37:34;-1.40;99.90
15386;DHT22;7791;47.246;9.648;2023-02-28T04:40:01;-1.50;99.90
15386;DHT22;7791;47.246;9.648;2023-02-28T04:42:26;-1.50;99.90
15386;DHT22;7791;47.246;9.648;2023-02-28T04:44:52;-1.50;99.90
15386;DHT22;7791;47.246;9.648;2023-02-28T04:47:18;-1.60;99.90
15386;DHT22;7791;47.246;9.648;2023-02-28T04:49:44;-1.50;99.90
15386;DHT22;7791;47.246;9.648;2023-02-28T04:52:09;-1.60;99.90
15386;DHT22;7791;47.246;9.648;2023-02-28T04:54:35;-1.50;99.90
15386;DHT22;7791;47.246;9.648;2023-02-28T04:57:22;-1.50;99.90
15386;DHT22;7791;47.246;9.648;2023-02-28T04:59:48;-1.50;99.90
15386;DHT22;7791;47.246;9.648;2023-02-28T05:02:14;-1.50;99.90
15386;DHT22;7791;47.246;9.648;2023-02-28T05:04:39;-1.50;99.90
15386;DHT22;7791;47.246;9.648;2023-02-28T05:07:05;-1.50;99.90
15386;DHT22;7791;47.246;9.648;2023-02-28T05:09:31;-1.50;99.90
15386;DHT22;7791;47.246;9.648;2023-02-28T05:18:39;-1.60;99.90
15386;DHT22;7791;47.246;9.648;2023-02-28T05:21:05;-1.60;99.90
15386;DHT22;7791;47.246;9.648;2023-02-28T05:23:32;-1.60;99.90
15386;DHT22;7791;47.246;9.648;2023-02-28T05:25:58;-1.60;99.90
15386;DHT22;7791;47.246;9.648;2023-02-28T05:28:24;-1.50;99.90
15386;DHT22;7791;47.246;9.648;2023-02-28T05:30:51;-1.40;99.90
15386;DHT22;7791;47.246;9.648;2023-02-28T05:33:17;-1.40;99.90
15386;DHT22;7791;47.246;9.648;2023-02-28T05:35:44;-1.30;99.90
15386;DHT22;7791;47.246;9.648;2023-02-28T05:38:10;-1.20;99.90
15386;DHT22;7791;47.246;9.648;2023-02-28T05:40:38;-1.20;99.90
15386;DHT22;7791;47.246;9.648;2023-02-28T05:46:09;-1.10;99.90
15386;DHT22;7791;47.246;9.648;2023-02-28T05:48:36;-1.20;99.90
15386;DHT22;7791;47.246;9.648;2023-02-28T05:51:04;-1.20;99.90
15386;DHT22;7791;47.246;9.648;2023-02-28T05:53:30;-1.20;99.90
15386;DHT22;7791;47.246;9.648;2023-02-28T05:55:57;-1.10;99.90
15386;DHT22;7791;47.246;9.648;2023-02-28T06:04:28;-1.10;99.90
15386;DHT22;7791;47.246;9.648;2023-02-28T06:06:55;-1.10;99.90
15386;DHT22;7791;47.246;9.648;2023-02-28T06:09:20;-1.10;99.90
15386;DHT22;7791;47.246;9.648;2023-02-28T06:12:06;-1.10;99.90
15386;DHT22;7791;47.246;9.648;2023-02-28T06:14:33;-1.10;99.90
15386;DHT22;7791;47.246;9.648;2023-02-28T06:16:59;-1.20;99.90
15386;DHT22;7791;47.246;9.648;2023-02-28T06:19:25;-1.20;99.90
15386;DHT22;7791;47.246;9.648;2023-02-28T06:21:52;-1.30;99.90
15386;DHT22;7791;47.246;9.648;2023-02-28T06:24:19;-1.30;99.90
15386;DHT22;7791;47.246;9.648;2023-02-28T06:27:19;-1.30;99.90
15386;DHT22;7791;47.246;9.648;2023-02-28T06:29:45;-1.20;99.90
15386;DHT22;7791;47.246;9.648;2023-02-28T06:32:10;-1.20;99.90
15386;DHT22;7791;47.246;9.648;2023-02-28T06:34:36;-1.20;99.90
15386;DHT22;7791;47.246;9.648;2023-02-28T06:37:02;-1.10;99.90
15386;DHT22;7791;47.246;9.648;2023-02-28T06:39:31;-1.10;99.90
15386;DHT22;7791;47.246;9.648;2023-02-28T06:41:57;-1.00;99.90
15386;DHT22;7791;47.246;9.648;2023-02-28T06:44:24;-1.10;99.90
15386;DHT22;7791;47.246;9.648;2023-02-28T06:46:49;-0.90;99.90
15386;DHT22;7791;47.246;9.648;2023-02-28T06:49:16;-0.80;99.90
15386;DHT22;7791;47.246;9.648;2023-02-28T06:51:44;-0.70;99.90
15386;DHT22;7791;47.246;9.648;2023-02-28T06:54:09;-0.50;99.90
15386;DHT22;7791;47.246;9.648;2023-02-28T06:56:37;-0.60;99.90
15386;DHT22;7791;47.246;9.648;2023-02-28T07:02:05;-0.20;99.90
15386;DHT22;7791;47.246;9.648;2023-02-28T07:04:31;0.10;99.90
15386;DHT22;7791;47.246;9.648;2023-02-28T07:06:57;0.30;99.90
15386;DHT22;7791;47.246;9.648;2023-02-28T07:09:23;0.40;99.90
15386;DHT22;7791;47.246;9.648;2023-02-28T07:11:52;0.50;99.90
15386;DHT22;7791;47.246;9.648;2023-02-28T07:14:37;0.70;99.90
15386;DHT22;7791;47.246;9.648;2023-02-28T07:17:03;0.80;99.90
15386;DHT22;7791;47.246;9.648;2023-02-28T07:19:29;0.90;99.90
15386;DHT22;7791;47.246;9.648;2023-02-28T07:21:54;1.00;99.90
15386;DHT22;7791;47.246;9.648;2023-02-28T07:24:20;1.00;99.90
15386;DHT22;7791;47.246;9.648;2023-02-28T07:26:46;1.10;99.90
15386;DHT22;7791;47.246;9.648;2023-02-28T07:29:33;1.10;99.90
15386;DHT22;7791;47.246;9.648;2023-02-28T07:31:59;1.30;99.90
15386;DHT22;7791;47.246;9.648;2023-02-28T07:34:25;1.50;99.90
15386;DHT22;7791;47.246;9.648;2023-02-28T07:36:53;1.70;99.90
15386;DHT22;7791;47.246;9.648;2023-02-28T07:39:19;1.80;99.90
15386;DHT22;7791;47.246;9.648;2023-02-28T07:41:45;2.80;99.90
15386;DHT22;7791;47.246;9.648;2023-02-28T07:47:20;5.10;99.90
15386;DHT22;7791;47.246;9.648;2023-02-28T07:49:46;5.50;99.90
15386;DHT22;7791;47.246;9.648;2023-02-28T07:52:12;5.50;99.90
15386;DHT22;7791;47.246;9.648;2023-02-28T07:54:37;5.20;99.90
15386;DHT22;7791;47.246;9.648;2023-02-28T07:57:03;5.00;99.90
15386;DHT22;7791;47.246;9.648;2023-02-28T07:59:57;4.70;99.90
15386;DHT22;7791;47.246;9.648;2023-02-28T08:02:24;4.60;99.90
15386;DHT22;7791;47.246;9.648;2023-02-28T08:04:50;4.30;99.90
15386;DHT22;7791;47.246;9.648;2023-02-28T08:07:17;4.20;99.90
15386;DHT22;7791;47.246;9.648;2023-02-28T08:09:43;3.60;99.90
15386;DHT22;7791;47.246;9.648;2023-02-28T08:12:10;3.60;99.90
15386;DHT22;7791;47.246;9.648;2023-02-28T08:15:16;3.70;99.90
15386;DHT22;7791;47.246;9.648;2023-02-28T08:17:43;3.50;99.90
15386;DHT22;7791;47.246;9.648;2023-02-28T08:20:10;3.60;99.90
15386;DHT22;7791;47.246;9.648;2023-02-28T08:22:36;3.30;99.90
15386;DHT22;7791;47.246;9.648;2023-02-28T08:25:02;2.90;99.90
15386;DHT22;7791;47.246;9.648;2023-02-28T08:27:29;2.60;99.90
15386;DHT22;7791;47.246;9.648;2023-02-28T08:29:58;2.50;99.90
15386;DHT22;7791;47.246;9.648;2023-02-28T08:32:27;2.40;99.90
15386;DHT22;7791;47.246;9.648;2023-02-28T08:34:54;2.30;99.90
15386;DHT22;7791;47.246;9.648;2023-02-28T08:37:21;2.60;99.90
15386;DHT22;7791;47.246;9.648;2023-02-28T08:39:49;2.40;99.90
15386;DHT22;7791;47.246;9.648;2023-02-28T08:42:17;2.30;99.90
15386;DHT22;7791;47.246;9.648;2023-02-28T08:44:45;2.20;99.90
15386;DHT22;7791;47.246;9.648;2023-02-28T08:47:12;2.20;99.90
15386;DHT22;7791;47.246;9.648;2023-02-28T08:49:40;2.20;99.90
15386;DHT22;7791;47.246;9.648;2023-02-28T08:52:12;2.40;99.90
15386;DHT22;7791;47.246;9.648;2023-02-28T08:54:39;2.90;99.90
15386;DHT22;7791;47.246;9.648;2023-02-28T08:57:06;2.80;99.90
15386;DHT22;7791;47.246;9.648;2023-02-28T09:02:37;3.00;99.90
15386;DHT22;7791;47.246;9.648;2023-02-28T09:05:06;2.70;99.90
15386;DHT22;7791;47.246;9.648;2023-02-28T09:07:34;2.90;99.90
15386;DHT22;7791;47.246;9.648;2023-02-28T09:10:01;3.20;99.90
15386;DHT22;7791;47.246;9.648;2023-02-28T09:12:28;3.40;99.90
15386;DHT22;7791;47.246;9.648;2023-02-28T09:15:00;3.70;99.90
15386;DHT22;7791;47.246;9.648;2023-02-28T09:17:30;3.70;99.90
15386;DHT22;7791;47.246;9.648;2023-02-28T09:19:59;4.00;99.90
15386;DHT22;7791;47.246;9.648;2023-02-28T09:22:28;4.30;99.90
15386;DHT22;7791;47.246;9.648;2023-02-28T09:30:44;4.90;99.90
15386;DHT22;7791;47.246;9.648;2023-02-28T09:33:11;4.40;99.90
15386;DHT22;7791;47.246;9.648;2023-02-28T09:35:37;3.80;99.90
15386;DHT22;7791;47.246;9.648;2023-02-28T09:38:03;3.30;99.90
15386;DHT22;7791;47.246;9.648;2023-02-28T09:40:30;3.20;99.90
15386;DHT22;7791;47.246;9.648;2023-02-28T09:42:59;3.10;99.90
15386;DHT22;7791;47.246;9.648;2023-02-28T09:45:29;3.00;99.90
15386;DHT22;7791;47.246;9.648;2023-02-28T09:47:59;2.50;99.90
15386;DHT22;7791;47.246;9.648;2023-02-28T09:50:31;2.50;99.90
15386;DHT22;7791;47.246;9.648;2023-02-28T09:59:04;3.30;99.90
15386;DHT22;7791;47.246;9.648;2023-02-28T10:09:40;4.10;99.90
15386;DHT22;7791;47.246;9.648;2023-02-28T10:12:06;8.10;99.90
15386;DHT22;7791;47.246;9.648;2023-02-28T10:17:40;10.60;95.90
15386;DHT22;7791;47.246;9.648;2023-02-28T10:20:11;10.20;94.90
15386;DHT22;7791;47.246;9.648;2023-02-28T10:22:43;9.60;94.80
15386;DHT22;7791;47.246;9.648;2023-02-28T10:25:18;8.80;95.50
15386;DHT22;7791;47.246;9.648;2023-02-28T10:27:49;7.60;96.20
15386;DHT22;7791;47.246;9.648;2023-02-28T10:33:22;4.90;99.80
15386;DHT22;7791;47.246;9.648;2023-02-28T10:35:48;4.50;99.90
15386;DHT22;7791;47.246;9.648;2023-02-28T10:38:19;4.20;99.90
15386;DHT22;7791;47.246;9.648;2023-02-28T10:40:46;4.10;99.90
15386;DHT22;7791;47.246;9.648;2023-02-28T10:43:20;4.20;99.90
15386;DHT22;7791;47.246;9.648;2023-02-28T10:49:20;5.30;99.90
15386;DHT22;7791;47.246;9.648;2023-02-28T10:51:47;5.70;99.90
15386;DHT22;7791;47.246;9.648;2023-02-28T10:54:19;5.90;99.90
15386;DHT22;7791;47.246;9.648;2023-02-28T10:57:05;5.70;99.90
15386;DHT22;7791;47.246;9.648;2023-02-28T10:59:31;5.80;99.90
15386;DHT22;7791;47.246;9.648;2023-02-28T11:01:57;6.70;99.90
15386;DHT22;7791;47.246;9.648;2023-02-28T11:04:33;7.50;99.20
15386;DHT22;7791;47.246;9.648;2023-02-28T11:07:00;7.10;97.80
15386;DHT22;7791;47.246;9.648;2023-02-28T11:09:30;6.70;99.60
15386;DHT22;7791;47.246;9.648;2023-02-28T11:11:59;6.50;99.60
15386;DHT22;7791;47.246;9.648;2023-02-28T11:14:27;6.50;99.90
15386;DHT22;7791;47.246;9.648;2023-02-28T11:16:54;6.00;99.90
15386;DHT22;7791;47.246;9.648;2023-02-28T11:19:23;5.90;99.90
15386;DHT22;7791;47.246;9.648;2023-02-28T11:21:54;6.00;99.90
15386;DHT22;7791;47.246;9.648;2023-02-28T11:24:24;6.30;99.40
15386;DHT22;7791;47.246;9.648;2023-02-28T11:26:51;7.20;99.40
15386;DHT22;7791;47.246;9.648;2023-02-28T11:29:20;7.50;98.50
15386;DHT22;7791;47.246;9.648;2023-02-28T11:32:15;7.30;97.80
15386;DHT22;7791;47.246;9.648;2023-02-28T11:34:42;7.00;98.90
15386;DHT22;7791;47.246;9.648;2023-02-28T11:37:12;7.50;97.80
15386;DHT22;7791;47.246;9.648;2023-02-28T11:39:38;7.00;98.80
15386;DHT22;7791;47.246;9.648;2023-02-28T11:42:22;6.50;99.70
15386;DHT22;7791;47.246;9.648;2023-02-28T11:45:04;6.50;99.20
15386;DHT22;7791;47.246;9.648;2023-02-28T11:47:34;6.40;99.10
15386;DHT22;7791;47.246;9.648;2023-02-28T11:50:18;6.70;99.70
15386;DHT22;7791;47.246;9.648;2023-02-28T11:52:52;6.40;99.90
15386;DHT22;7791;47.246;9.648;2023-02-28T11:55:23;6.50;99.90
15386;DHT22;7791;47.246;9.648;2023-02-28T11:58:11;5.60;99.90
15386;DHT22;7791;47.246;9.648;2023-02-28T12:00:50;5.80;99.90
15386;DHT22;7791;47.246;9.648;2023-02-28T12:03:27;6.00;99.90
15386;DHT22;7791;47.246;9.648;2023-02-28T12:06:03;5.60;99.90
15386;DHT22;7791;47.246;9.648;2023-02-28T12:08:46;6.30;99.90
15386;DHT22;7791;47.246;9.648;2023-02-28T12:11:22;6.80;99.90
15386;DHT22;7791;47.246;9.648;2023-02-28T12:14:14;6.60;99.80
15386;DHT22;7791;47.246;9.648;2023-02-28T12:16:56;7.10;99.90
15386;DHT22;7791;47.246;9.648;2023-02-28T12:19:28;8.20;99.30
15386;DHT22;7791;47.246;9.648;2023-02-28T12:22:22;7.00;99.90
15386;DHT22;7791;47.246;9.648;2023-02-28T12:25:38;6.10;99.90
15386;DHT22;7791;47.246;9.648;2023-02-28T12:28:07;5.70;99.90
15386;DHT22;7791;47.246;9.648;2023-02-28T12:30:35;6.10;99.90
15386;DHT22;7791;47.246;9.648;2023-02-28T12:33:18;6.10;99.90
15386;DHT22;7791;47.246;9.648;2023-02-28T12:35:49;6.30;99.90
15386;DHT22;7791;47.246;9.648;2023-02-28T12:38:20;6.10;99.90
15386;DHT22;7791;47.246;9.648;2023-02-28T12:40:52;5.40;99.90
15386;DHT22;7791;47.246;9.648;2023-02-28T12:43:20;5.10;99.90
15386;DHT22;7791;47.246;9.648;2023-02-28T12:45:51;6.10;99.90
15386;DHT22;7791;47.246;9.648;2023-02-28T12:48:24;5.40;99.90
15386;DHT22;7791;47.246;9.648;2023-02-28T12:50:51;5.50;99.90
15386;DHT22;7791;47.246;9.648;2023-02-28T12:53:23;5.60;99.90
15386;DHT22;7791;47.246;9.648;2023-02-28T12:55:59;5.20;99.90
15386;DHT22;7791;47.246;9.648;2023-02-28T12:58:31;5.30;99.90
15386;DHT22;7791;47.246;9.648;2023-02-28T13:01:14;5.30;99.90
15386;DHT22;7791;47.246;9.648;2023-02-28T13:06:54;5.30;99.90
15386;DHT22;7791;47.246;9.648;2023-02-28T13:09:23;5.70;99.90
15386;DHT22;7791;47.246;9.648;2023-02-28T13:11:50;5.90;99.90
15386;DHT22;7791;47.246;9.648;2023-02-28T13:14:22;6.10;99.90
15386;DHT22;7791;47.246;9.648;2023-02-28T13:16:55;6.00;99.90
15386;DHT22;7791;47.246;9.648;2023-02-28T13:19:24;5.70;99.90
15386;DHT22;7791;47.246;9.648;2023-02-28T13:21:51;5.30;99.90
15386;DHT22;7791;47.246;9.648;2023-02-28T13:24:40;5.10;99.90
15386;DHT22;7791;47.246;9.648;2023-02-28T13:27:35;5.30;99.90
15386;DHT22;7791;47.246;9.648;2023-02-28T13:30:02;5.80;99.90
15386;DHT22;7791;47.246;9.648;2023-02-28T13:33:26;5.60;99.90
15386;DHT22;7791;47.246;9.648;2023-02-28T13:36:11;5.40;99.90
15386;DHT22;7791;47.246;9.648;2023-02-28T13:38:48;5.00;99.90
15386;DHT22;7791;47.246;9.648;2023-02-28T13:41:45;5.00;99.90
15386;DHT22;7791;47.246;9.648;2023-02-28T13:44:12;5.40;99.90
15386;DHT22;7791;47.246;9.648;2023-02-28T13:49:42;4.90;99.90
15386;DHT22;7791;47.246;9.648;2023-02-28T13:52:14;5.30;99.90
15386;DHT22;7791;47.246;9.648;2023-02-28T13:54:50;5.50;99.90
15386;DHT22;7791;47.246;9.648;2023-02-28T13:57:26;5.40;99.90
15386;DHT22;7791;47.246;9.648;2023-02-28T14:00:07;5.40;99.90
15386;DHT22;7791;47.246;9.648;2023-02-28T14:03:13;5.70;99.90
15386;DHT22;7791;47.246;9.648;2023-02-28T14:05:40;5.80;99.90
15386;DHT22;7791;47.246;9.648;2023-02-28T14:08:12;5.80;99.90
15386;DHT22;7791;47.246;9.648;2023-02-28T14:10:43;5.40;99.90
15386;DHT22;7791;47.246;9.648;2023-02-28T14:15:58;5.60;99.90
15386;DHT22;7791;47.246;9.648;2023-02-28T14:18:28;5.40;99.90
15386;DHT22;7791;47.246;9.648;2023-02-28T14:21:02;5.20;99.90
15386;DHT22;7791;47.246;9.648;2023-02-28T14:26:36;5.30;99.90
15386;DHT22;7791;47.246;9.648;2023-02-28T14:29:26;5.00;99.90
15386;DHT22;7791;47.246;9.648;2023-02-28T14:32:01;4.80;99.90
15386;DHT22;7791;47.246;9.648;2023-02-28T14:34:37;4.70;99.90
15386;DHT22;7791;47.246;9.648;2023-02-28T14:37:05;4.60;99.90
15386;DHT22;7791;47.246;9.648;2023-02-28T14:39:32;4.10;99.90
15386;DHT22;7791;47.246;9.648;2023-02-28T14:41:58;3.60;99.90
15386;DHT22;7791;47.246;9.648;2023-02-28T14:44:25;3.70;99.90
15386;DHT22;7791;47.246;9.648;2023-02-28T14:46:54;3.60;99.90
15386;DHT22;7791;47.246;9.648;2023-02-28T14:49:42;3.50;99.90
15386;DHT22;7791;47.246;9.648;2023-02-28T14:52:22;3.60;99.90
15386;DHT22;7791;47.246;9.648;2023-02-28T14:54:52;3.70;99.90
15386;DHT22;7791;47.246;9.648;2023-02-28T14:57:24;3.70;99.90
15386;DHT22;7791;47.246;9.648;2023-02-28T14:59:58;3.50;99.90
15386;DHT22;7791;47.246;9.648;2023-02-28T15:02:25;3.40;99.90
15386;DHT22;7791;47.246;9.648;2023-02-28T15:05:21;3.30;99.90
15386;DHT22;7791;47.246;9.648;2023-02-28T15:07:48;3.00;99.90
15386;DHT22;7791;47.246;9.648;2023-02-28T15:10:21;3.10;99.90
15386;DHT22;7791;47.246;9.648;2023-02-28T15:12:52;3.30;99.90
15386;DHT22;7791;47.246;9.648;2023-02-28T15:15:20;3.40;99.90
15386;DHT22;7791;47.246;9.648;2023-02-28T15:17:49;3.20;99.90
15386;DHT22;7791;47.246;9.648;2023-02-28T15:20:16;3.10;99.90
15386;DHT22;7791;47.246;9.648;2023-02-28T15:22:42;3.10;99.90
15386;DHT22;7791;47.246;9.648;2023-02-28T15:25:10;2.90;99.90
15386;DHT22;7791;47.246;9.648;2023-02-28T15:27:43;2.80;99.90
15386;DHT22;7791;47.246;9.648;2023-02-28T15:30:15;2.70;99.90
15386;DHT22;7791;47.246;9.648;2023-02-28T15:32:42;2.70;99.90
15386;DHT22;7791;47.246;9.648;2023-02-28T15:35:28;2.70;99.90
15386;DHT22;7791;47.246;9.648;2023-02-28T15:37:57;2.70;99.90
15386;DHT22;7791;47.246;9.648;2023-02-28T15:40:26;2.80;99.90
15386;DHT22;7791;47.246;9.648;2023-02-28T15:43:03;2.70;99.90
15386;DHT22;7791;47.246;9.648;2023-02-28T15:45:34;2.70;99.90
15386;DHT22;7791;47.246;9.648;2023-02-28T15:48:01;2.60;99.90
15386;DHT22;7791;47.246;9.648;2023-02-28T15:50:48;2.50;99.90
15386;DHT22;7791;47.246;9.648;2023-02-28T15:53:17;2.50;99.90
15386;DHT22;7791;47.246;9.648;2023-02-28T15:55:44;2.50;99.90
15386;DHT22;7791;47.246;9.648;2023-02-28T15:58:12;2.50;99.90
15386;DHT22;7791;47.246;9.648;2023-02-28T16:00:39;2.30;99.90
15386;DHT22;7791;47.246;9.648;2023-02-28T16:03:24;2.40;99.90
15386;DHT22;7791;47.246;9.648;2023-02-28T16:08:48;2.50;99.90
15386;DHT22;7791;47.246;9.648;2023-02-28T16:11:14;2.60;99.90
15386;DHT22;7791;47.246;9.648;2023-02-28T16:13:41;2.60;99.90
15386;DHT22;7791;47.246;9.648;2023-02-28T16:16:07;2.40;99.90
15386;DHT22;7791;47.246;9.648;2023-02-28T16:18:59;2.40;99.90
15386;DHT22;7791;47.246;9.648;2023-02-28T16:21:33;2.30;99.90
15386;DHT22;7791;47.246;9.648;2023-02-28T16:24:33;2.20;99.90
15386;DHT22;7791;47.246;9.648;2023-02-28T16:27:01;2.10;99.90
15386;DHT22;7791;47.246;9.648;2023-02-28T16:29:32;2.00;99.90
15386;DHT22;7791;47.246;9.648;2023-02-28T16:32:12;2.00;99.90
15386;DHT22;7791;47.246;9.648;2023-02-28T16:34:39;2.00;99.90
15386;DHT22;7791;47.246;9.648;2023-02-28T16:37:12;2.10;99.90
15386;DHT22;7791;47.246;9.648;2023-02-28T16:39:44;2.00;99.90
15386;DHT22;7791;47.246;9.648;2023-02-28T16:42:24;2.00;99.90
15386;DHT22;7791;47.246;9.648;2023-02-28T16:44:55;2.00;99.90
15386;DHT22;7791;47.246;9.648;2023-02-28T16:47:22;1.90;99.90
15386;DHT22;7791;47.246;9.648;2023-02-28T16:49:51;1.90;99.90
15386;DHT22;7791;47.246;9.648;2023-02-28T16:52:17;1.90;99.90
15386;DHT22;7791;47.246;9.648;2023-02-28T16:54:44;1.90;99.90
15386;DHT22;7791;47.246;9.648;2023-02-28T16:57:18;1.80;99.90
15386;DHT22;7791;47.246;9.648;2023-02-28T16:59:45;1.80;99.90
15386;DHT22;7791;47.246;9.648;2023-02-28T17:02:14;1.80;99.90
15386;DHT22;7791;47.246;9.648;2023-02-28T17:04:58;1.80;99.90
15386;DHT22;7791;47.246;9.648;2023-02-28T17:07:40;1.80;99.90
15386;DHT22;7791;47.246;9.648;2023-02-28T17:10:15;1.80;99.90
15386;DHT22;7791;47.246;9.648;2023-02-28T17:12:41;1.80;99.90
15386;DHT22;7791;47.246;9.648;2023-02-28T17:15:14;1.90;99.90
15386;DHT22;7791;47.246;9.648;2023-02-28T17:17:43;1.80;99.90
15386;DHT22;7791;47.246;9.648;2023-02-28T17:20:16;1.70;99.90
15386;DHT22;7791;47.246;9.648;2023-02-28T17:22:45;1.80;99.90
15386;DHT22;7791;47.246;9.648;2023-02-28T17:25:14;1.80;99.90
15386;DHT22;7791;47.246;9.648;2023-02-28T17:27:40;1.90;99.90
15386;DHT22;7791;47.246;9.648;2023-02-28T17:30:14;1.80;99.90